Flight Track Log - Related Links

Times and Time Zones

All times are in EDT time to prevent confusion due to time zone crossing. See the DAL3606 flight status page for this flight to view local times or setup timezone preferences in your user account.

Time Position Orientation Groundspeed Altitude Reporting Facility
EDT Latitude Longitude Course Direction KTS MPH feet Rate Location/Type
Sat 08:49:15 AM 33.6333 -84.3667 53° Northeast 173 199 3,800  Level Atlanta TRACON
Sat 08:50:15 AM 33.6333 -84.3000 90° East 229 264 6,100 2,190 Climbing Atlanta TRACON
Sat 08:51:00 AM 33.8788 -84.1402 54° Northeast  Level Estimated
Sat 08:51:21 AM 33.6333 -84.2000 90° East 265 305 8,400  Level Atlanta TRACON
Sat 08:52:00 AM 33.8742 -84.0036 92° East  Level FlightAware
Sat 08:52:49 AM 33.6503 -84.0714 81° East 290 334 11,400  Level Atlanta Center
Sat 08:53:00 AM 33.8696 -83.8671 92° East  Level FlightAware
Sat 08:53:49 AM 33.7211 -83.9889 44° Northeast 310 357 12,800  Level Atlanta Center
Sat 08:54:00 AM 33.9518 -83.7729 53° Northeast  Level Estimated
Sat 08:54:49 AM 33.7919 -83.8964 47° Northeast 348 400 14,200  Level Atlanta Center
Sat 08:55:49 AM 33.8650 -83.8036 47° Northeast 372 428 16,100 1,650 Climbing Atlanta Center
Sat 08:56:49 AM 33.9378 -83.7083 47° Northeast 379 436 17,500 1,250 Climbing Atlanta Center
Sat 08:57:49 AM 34.0022 -83.6028 54° Northeast 385 443 18,600 1,100 Climbing Atlanta Center
Sat 08:58:49 AM 34.0686 -83.4947 53° Northeast 392 451 19,700 1,200 Climbing Atlanta Center
Sat 08:59:49 AM 34.1347 -83.3939 52° Northeast 387 445 21,000 1,150 Climbing Atlanta Center
Sat 09:00:49 AM 34.2011 -83.2828 54° Northeast 392 451 22,000 950 Climbing Atlanta Center
Sat 09:01:49 AM 34.2711 -83.1742 52° Northeast 400 460 22,900 900 Climbing Atlanta Center
Sat 09:02:49 AM 34.3392 -83.0603 54° Northeast 411 473 23,800 900 Climbing Atlanta Center
Sat 09:03:49 AM 34.4114 -82.9436 53° Northeast 427 491 24,700 850 Climbing Atlanta Center
Sat 09:04:49 AM 34.4750 -82.8419 53° Northeast 427 491 25,500 850 Climbing Atlanta Center
Sat 09:05:49 AM 34.5489 -82.7247 53° Northeast 427 491 26,400 750 Climbing Atlanta Center
Sat 09:06:49 AM 34.6250 -82.6125 50° Northeast 422 486 27,000 300 Climbing Atlanta Center
Sat 09:07:49 AM 34.6986 -82.4825 55° Northeast 422 486 27,000  Level Atlanta Center
Sat 09:08:49 AM 34.7700 -82.3672 53° Northeast 427 491 27,000  Level Atlanta Center
Sat 09:09:49 AM 34.8394 -82.2522 54° Northeast 427 491 27,000  Level Atlanta Center
Sat 09:10:49 AM 34.9086 -82.1367 54° Northeast 421 484 27,000  Level Atlanta Center
Sat 09:11:49 AM 34.9736 -82.0311 53° Northeast 421 484 27,000  Level Atlanta Center
Sat 09:12:49 AM 35.0425 -81.9128 55° Northeast 421 484 27,000  Level Atlanta Center
Sat 09:13:49 AM 35.1092 -81.7867 57° Northeast 434 499 27,000  Level Atlanta Center
Sat 09:14:49 AM 35.1736 -81.6631 57° Northeast 434 499 27,000  Level Atlanta Center
Sat 09:15:49 AM 35.2400 -81.5389 57° Northeast 439 505 27,000  Level Atlanta Center
Sat 09:16:49 AM 35.3103 -81.4019 58° Northeast 439 505 27,000  Level Atlanta Center
Sat 09:17:49 AM 35.3764 -81.2750 57° Northeast 439 505 27,000  Level Atlanta Center
Sat 09:18:49 AM 35.4422 -81.1506 57° Northeast 439 505 27,000  Level Atlanta Center
Sat 09:19:49 AM 35.5019 -81.0336 58° Northeast 439 505 27,000  Level Atlanta Center
Sat 09:20:49 AM 35.5678 -80.9086 57° Northeast 439 505 27,000  Level Atlanta Center
Sat 09:21:49 AM 35.6372 -80.7756 57° Northeast 439 505 27,000  Level Atlanta Center
Sat 09:22:49 AM 35.7006 -80.6506 58° Northeast 439 505 27,000  Level Atlanta Center
Sat 09:24:25 AM 35.8028 -80.4503 58° Northeast 435 501 27,000  Level Washington Center
Sat 09:25:26 AM 35.8594 -80.3386 58° Northeast 422 486 27,000  Level Washington Center
Sat 09:26:27 AM 35.9225 -80.2192 57° Northeast 417 480 27,000  Level Washington Center
Sat 09:27:25 AM 35.9858 -80.0944 58° Northeast 410 472 27,000  Level Washington Center
Sat 09:28:25 AM 36.0467 -79.9747 58° Northeast 417 480 27,000  Level Washington Center
Sat 09:29:27 AM 36.1178 -79.8500 55° Northeast 429 494 27,000  Level Washington Center
Sat 09:30:27 AM 36.1847 -79.7303 55° Northeast 416 479 27,000  Level Washington Center
Sat 09:31:25 AM 36.2467 -79.6228 54° Northeast 416 479 27,000  Level Washington Center
Sat 09:32:26 AM 36.3178 -79.4922 56° Northeast 416 479 27,000  Level Washington Center
Sat 09:33:26 AM 36.3731 -79.3969 54° Northeast 410 472 27,000  Level Washington Center
Sat 09:34:24 AM 36.4528 -79.2536 55° Northeast 415 478 27,000 -303 Level Washington Center
Sat 09:35:25 AM 36.5211 -79.1328 55° Northeast 423 487 26,400 -689 Descending Washington Center
Sat 09:36:26 AM 36.5911 -79.0144 54° Northeast 423 487 25,600 -689 Descending Washington Center
Sat 09:37:27 AM 36.6617 -78.8881 55° Northeast 433 498 25,000 -303 Descending Washington Center
Sat 09:38:25 AM 36.7208 -78.7739 57° Northeast 433 498 25,000  Level Washington Center
Sat 09:39:26 AM 36.7911 -78.6394 57° Northeast 428 493 25,000 -496 Level Washington Center
Sat 09:40:26 AM 36.8589 -78.5228 54° Northeast 423 487 24,000 -1,190 Descending Washington Center
Sat 09:41:27 AM 36.9133 -78.4208 56° Northeast 410 472 22,600 -992 Descending Washington Center
Sat 09:42:27 AM 36.9808 -78.2958 56° Northeast 399 459 22,000 -305 Descending Washington Center
Sat 09:43:25 AM 37.0419 -78.1861 55° Northeast 389 448 22,000  Level Washington Center
Sat 09:44:25 AM 37.1347 -78.1319 25° Northeast 381 438 22,000  Level Washington Center
Sat 09:45:26 AM 37.2281 -78.0594 32° Northeast 381 438 22,000  Level Washington Center
Sat 09:46:27 AM 37.3256 -77.9867 31° Northeast 388 447 22,000 -347 Level Washington Center
Sat 09:47:27 AM 37.4208 -77.9114 32° Northeast 399 459 21,300 -1,169 Descending Washington Center
Sat 09:48:25 AM 37.5183 -77.8358 32° Northeast 399 459 19,700 -1,563 Descending Washington Center
Sat 09:49:26 AM 37.6131 -77.7808 25° Northeast 394 453 18,200 -1,190 Descending Washington Center
Sat 09:50:26 AM 37.7167 -77.7131 27° Northeast 379 436 17,300 -1,339 Descending Washington Center
Sat 09:51:27 AM 37.7967 -77.6706 23° Northeast 361 415 15,500 -1,664 Descending Washington Center
Sat 09:52:25 AM 37.8850 -77.6203 24° Northeast 355 409 14,000 -1,513 Descending Washington Center
Sat 09:53:26 AM 37.9694 -77.5672 26° Northeast 343 395 12,500 -1,426 Descending Washington Center
Sat 09:54:27 AM 38.0533 -77.5247 22° Northeast 330 380 11,100 -1,190 Descending Washington Center
Sat 09:55:27 AM 38.1356 -77.4767 25° Northeast 325 374 10,100 -550 Descending Washington Center
Sat 09:56:27 AM 38.2050 -77.4336 26° Northeast 299 344 10,000 -51 Descending Washington Center
Sat 09:57:25 AM 38.2722 -77.3928 25° Northeast 281 323 10,000 -555 Level Washington Center
Sat 09:58:26 AM 38.3458 -77.3575 21° North 276 318 8,900 -1,240 Descending Washington Center
Sat 09:59:26 AM 38.4231 -77.3594 359° North 271 312 7,500 -1,488 Descending Washington Center
Sat 10:00:27 AM 38.4981 -77.3611 359° North 271 312 5,900 -1,261 Descending Washington Center
Sat 10:01:25 AM 38.5708 -77.3681 356° North 271 312 5,000 -962 Descending Washington Center
Sat 10:02:13 AM 38.6333 -77.3667 North 254 292 4,200 -588 Descending Potomac TRACON
Sat 10:03:07 AM 38.7000 -77.3667 360° North 252 290 4,000 -105 Descending Potomac TRACON
Sat 10:04:07 AM 38.7667 -77.3500 11° North 262 302 4,000 -50 Level Potomac TRACON
Sat 10:05:07 AM 38.8500 -77.3500 360° North 258 297 3,900 -526 Descending Potomac TRACON
Sat 10:06:01 AM 38.9000 -77.3500 360° North 252 290 3,000 -495 Descending Potomac TRACON
Sat 10:06:56 AM 38.9667 -77.3500 360° North 215 247 3,000  Level Potomac TRACON
Sat 10:07:56 AM 39.0167 -77.3500 360° North 207 238 3,000  Level Potomac TRACON
Sat 10:08:56 AM 39.0833 -77.3500 360° North 199 229 3,000  Level Potomac TRACON
Sat 10:09:56 AM 39.1333 -77.3667 346° North 202 232 3,000  Level Potomac TRACON
Sat 10:10:56 AM 39.1167 -77.4167 247° West 209 241 3,000  Level Potomac TRACON

Login

Don't have an account? Register now (free) for customized features, flight alerts, and more!